• Join FlightAware (Why Join?)
  • Login
  • US Flag 
08:18AM EDT


 

Airport Tracker/Info


-or-


 

Live Flight TrackerFlight Track Log ✈ N105WC ✈ 17-Aug-2013 ✈ KINT - CYRP

Flight Track Log - Related Links

Times and Time Zones

All times are in EDT time to prevent confusion due to time zone crossing. See the N105WC flight status page for this flight to view local times or setup timezone preferences in your user account.

Time Position Orientation Groundspeed Altitude Reporting Facility
EDT Latitude Longitude Course Direction KTS MPH feet Rate Location/Type
12:22PM 36.2133 -80.2569 18° North 460 529 4,000  Level Washington Center
12:23PM 36.2575 -80.1950 49° Northeast 302 348 5,900 2,280 Climbing Washington Center
12:24PM 36.2692 -80.1081 81° East 288 331 8,500 2,640 Climbing Washington Center
12:25PM 36.2875 -80.0061 77° East 288 331 11,100 1,740 Climbing Washington Center
12:26PM 36.3106 -79.8889 76° East 314 361 12,000 420 Climbing Washington Center
12:27PM 36.6419 -80.0190 18° North  Level Estimated
12:27PM 36.3339 -79.7586 77° East 372 428 12,000  Level Washington Center
12:28PM 36.7186 -79.9882 18° North  Level Estimated
12:28PM 36.3525 -79.6436 79° East 383 441 12,400  Level Washington Center
12:29PM 36.4203 -79.5464 49° Northeast 367 422 13,500 1,980 Climbing Washington Center
12:30PM 36.5444 -79.5139 12° North 373 429 16,400 2,460 Climbing Washington Center
12:31PM 36.6458 -79.4803 15° North 378 435 18,500 1,800 Climbing Washington Center
12:32PM 36.7511 -79.4467 14° North 378 435 20,100 1,440 Climbing Washington Center
12:33PM 36.8586 -79.4131 14° North 384 442 21,400 1,320 Climbing Washington Center
12:34PM 36.9600 -79.3792 15° North 397 457 22,700 780 Climbing Washington Center
12:35PM 37.0781 -79.3381 16° North 415 478 23,000 120 Climbing Washington Center
12:36PM 37.2044 -79.2972 14° North 444 511 23,000 600 Level Washington Center
12:37PM 37.3500 -79.2494 15° North 474 545 24,300 1,560 Climbing Washington Center
12:38PM 37.4636 -79.2131 14° North 474 545 26,100 1,440 Climbing Washington Center
12:39PM 37.5839 -79.1717 15° North 464 534 27,300 1,080 Climbing Washington Center
12:40PM 37.7081 -79.1303 15° North 459 528 28,300 960 Climbing Washington Center
12:41PM 37.8344 -79.0889 15° North 459 528 29,300 1,080 Climbing Washington Center
12:42PM 37.9736 -79.0425 15° North 459 528 30,500 960 Climbing Washington Center
12:43PM 38.0978 -79.0008 15° North 459 528 31,300 900 Climbing Washington Center
12:44PM 38.2283 -78.9567 15° North 459 528 32,400 960 Climbing Washington Center
12:45PM 38.3503 -78.9144 15° North 459 528 33,300 780 Climbing Washington Center
12:46PM 38.4725 -78.8722 15° North 459 528 34,000 840 Climbing Washington Center
12:47PM 38.6011 -78.8247 16° North 459 528 35,000 480 Climbing Washington Center
12:48PM 38.7294 -78.7825 14° North 464 534 35,000  Level Washington Center
12:49PM 38.8661 -78.7350 15° North 477 549 35,000  Level Washington Center
12:50PM 39.0050 -78.6875 15° North 496 571 35,000  Level Washington Center
12:54PM 39.5125 -78.5086 15° North 502 578 35,000  Level Cleveland Center
12:55PM 39.6533 -78.4558 16° North 514 592 35,000  Level Cleveland Center
12:56PM 39.7919 -78.4056 16° North 519 597 35,000  Level Cleveland Center
12:57PM 39.9328 -78.3547 15° North 513 590 35,000  Level Cleveland Center
12:58PM 40.0736 -78.3067 15° North 513 590 35,000  Level Cleveland Center
12:59PM 40.2122 -78.2558 16° North 508 585 35,000  Level Cleveland Center
01:01PM 40.5747 -78.1217 16° North 541 623 35,000  Level New York Center
01:02PM 40.7114 -78.0678 17° North 529 609 35,000  Level New York Center
01:03PM 40.8392 -78.0239 15° North 529 609 35,000  Level New York Center
01:04PM 40.9750 -77.9503 22° Northeast 524 603 35,000  Level New York Center
01:05PM 41.1061 -77.8486 30° Northeast 530 610 35,000  Level New York Center
01:06PM 41.2350 -77.7489 30° Northeast 535 616 35,000  Level New York Center
01:07PM 41.3636 -77.6514 30° Northeast 540 621 35,000  Level New York Center
01:08PM 41.4881 -77.5533 31° Northeast 534 615 35,000  Level New York Center
01:09PM 41.6167 -77.4553 30° Northeast 528 608 35,000  Level New York Center
01:10PM 41.7408 -77.3567 31° Northeast 528 608 35,000  Level New York Center
01:11PM 41.8694 -77.2522 31° Northeast 528 608 35,000  Level New York Center
01:12PM 41.9617 -77.1817 30° Northeast 541 623 35,000  Level Cleveland Center
01:14PM 42.1706 -77.0153 31° Northeast 558 642 35,000  Level Boston Center
01:15PM 42.2933 -76.9147 31° Northeast 536 617 35,000  Level Boston Center
01:16PM 42.4203 -76.8142 30° Northeast 531 611 35,000  Level Boston Center
01:17PM 42.5472 -76.7103 31° Northeast 531 611 35,000  Level Boston Center
01:18PM 42.6739 -76.6117 30° Northeast 531 611 35,000  Level Boston Center
01:19PM 42.7967 -76.5097 31° Northeast 526 605 35,000  Level Boston Center
01:20PM 42.9125 -76.4181 30° Northeast 526 605 35,000  Level Boston Center
01:21PM 43.0392 -76.3125 31° Northeast 526 605 35,000  Level Boston Center
01:22PM 43.1631 -76.2206 28° Northeast 526 605 35,000  Level Boston Center
01:23PM 43.3039 -76.1867 10° North 505 581 35,000 -60 Level Boston Center
01:24PM 43.4422 -76.1608 North 500 575 34,900 -660 Descending Boston Center
01:25PM 43.5767 -76.1347 North 495 570 33,700 -1,380 Descending Boston Center
01:26PM 43.7108 -76.1114 North 490 564 32,200 -1,440 Descending Boston Center
01:27PM 43.8450 -76.0878 North 485 558 30,900 -1,680 Descending Boston Center
01:28PM 43.9856 -76.0617 North 480 552 29,000 -2,280 Descending Boston Center
01:29PM 44.1131 -76.0464 North 466 536 26,500 -2,400 Descending Boston Center
01:30PM 44.2386 -76.0336 North 461 531 24,200 -2,400 Descending Boston Center
01:31PM 44.3581 -76.0147 North 445 512 21,700 -2,700 Descending Boston Center
01:32PM 44.5000 -76.0000 North 410 472 17,800 -2,580 Descending Montreal Center
01:33PM 44.6167 -76.0000 360° North 410 472 15,600 -2,340 Descending Montreal Center
01:34PM 44.7333 -75.9667 11° North 390 449 13,200 -2,160 Descending Montreal Center
01:35PM 44.8333 -76.0000 347° North 330 380 11,300 -1,860 Descending Montreal Center
01:36PM 44.9000 -76.0000 360° North 290 334 9,500 -2,040 Descending Montreal Center
01:37PM 44.9833 -76.0000 360° North 280 322 7,300 -2,040 Descending Montreal Center
01:38PM 45.0667 -76.0167 352° North 260 299 5,500 -1,200 Descending Montreal Center
01:39PM 45.1167 -76.0167 360° North 220 253 5,000 -900 Descending Montreal Center
01:40PM 45.1833 -76.0167 360° North 230 265 3,700 -1,200 Descending Montreal Center
01:41PM 45.2500 -76.0167 360° North 220 253 2,600 -960 Descending Montreal Center
01:42PM 45.3000 -76.0167 360° North 200 230 1,800 -540 Descending Montreal Center
01:43PM 45.3500 -76.0000 13° North 150 173 1,600 -360 Descending Montreal Center
01:44PM 45.3000 -75.9667 155° Southeast 140 161 1,100 -600 Descending Montreal Center
01:45PM 45.3000 -76.0167 270° West 120 138 500 -600 Descending Montreal Center